createdAt,value
2017-08-11T00:00:20.921Z,9.03
2017-08-11T00:02:50.180Z,9.30
2017-08-11T00:05:19.014Z,8.40
2017-08-11T00:07:47.516Z,14.10
2017-08-11T00:10:15.976Z,11.13
2017-08-11T00:12:45.183Z,11.67
2017-08-11T00:15:13.895Z,15.27
2017-08-11T00:17:42.740Z,16.07
2017-08-11T00:20:11.199Z,17.83
2017-08-11T00:22:43.146Z,15.67
2017-08-11T00:25:15.461Z,17.30
2017-08-11T00:27:48.072Z,13.50
2017-08-11T00:30:20.012Z,14.23
2017-08-11T00:32:53.455Z,14.03
2017-08-11T00:35:25.431Z,11.73
2017-08-11T00:37:58.863Z,15.80
2017-08-11T00:40:31.035Z,14.00
2017-08-11T00:45:01.223Z,10.73
2017-08-11T00:47:29.709Z,11.40
2017-08-11T00:49:58.149Z,10.63
2017-08-11T00:52:26.583Z,11.23
2017-08-11T00:54:55.087Z,9.67
2017-08-11T00:57:23.510Z,11.23
2017-08-11T00:59:51.948Z,12.70
2017-08-11T01:02:20.421Z,10.83
2017-08-11T01:04:49.626Z,11.57
2017-08-11T01:07:18.491Z,10.33
2017-08-11T01:09:47.319Z,9.87
2017-08-11T01:12:15.765Z,10.80
2017-08-11T01:14:44.641Z,9.70
2017-08-11T01:17:13.123Z,10.47
2017-08-11T01:19:41.560Z,7.50
2017-08-11T01:22:10.824Z,9.67
2017-08-11T01:24:40.396Z,9.77
2017-08-11T01:27:08.834Z,9.87
2017-08-11T01:29:37.290Z,10.40
2017-08-11T01:32:05.737Z,11.57
2017-08-11T01:34:35.099Z,12.63
2017-08-11T01:37:03.623Z,11.97
2017-08-11T01:39:32.466Z,10.17
2017-08-11T01:42:02.056Z,11.43
2017-08-11T01:44:30.485Z,8.33
2017-08-11T01:46:58.938Z,10.50
2017-08-11T01:49:27.403Z,9.87
2017-08-11T01:51:55.828Z,10.40
2017-08-11T01:54:25.075Z,11.87
2017-08-11T01:56:53.530Z,10.17
2017-08-11T01:59:21.965Z,11.60
2017-08-11T02:01:50.442Z,11.13
2017-08-11T02:04:18.871Z,11.50
2017-08-11T02:06:46.678Z,11.10
2017-08-11T02:09:15.116Z,10.20
2017-08-11T02:11:43.640Z,12.00
2017-08-11T02:14:11.739Z,11.33
2017-08-11T02:16:40.187Z,9.00
2017-08-11T02:19:08.674Z,9.80
2017-08-11T02:21:37.120Z,9.17
2017-08-11T02:24:05.567Z,9.53
2017-08-11T02:26:34.029Z,8.70
2017-08-11T02:29:02.466Z,9.30
2017-08-11T02:31:30.963Z,9.10
2017-08-11T02:34:00.159Z,9.20
2017-08-11T02:36:29.028Z,8.07
2017-08-11T02:38:57.501Z,9.13
2017-08-11T02:41:26.792Z,8.53
2017-08-11T02:43:56.439Z,10.03
2017-08-11T02:46:24.923Z,8.73
2017-08-11T02:48:53.388Z,8.40
2017-08-11T02:51:21.806Z,7.63
2017-08-11T02:53:50.275Z,9.10
2017-08-11T02:56:19.503Z,9.40
2017-08-11T02:58:47.985Z,8.83
2017-08-11T03:01:16.408Z,6.90
2017-08-11T03:03:44.847Z,7.83
2017-08-11T03:06:13.838Z,9.57
2017-08-11T03:08:42.687Z,6.53
2017-08-11T03:11:11.159Z,7.20
2017-08-11T03:13:40.405Z,7.13
2017-08-11T03:16:08.864Z,5.70
2017-08-11T03:18:37.332Z,6.90
2017-08-11T03:21:05.804Z,5.90
2017-08-11T03:23:34.283Z,7.00
2017-08-11T03:26:03.468Z,5.93
2017-08-11T03:28:31.942Z,6.60
2017-08-11T03:31:00.368Z,5.80
2017-08-11T03:33:28.799Z,6.67
2017-08-11T03:35:58.541Z,5.60
2017-08-11T03:38:27.370Z,6.73
2017-08-11T03:40:55.827Z,5.23
2017-08-11T03:43:24.316Z,6.47
2017-08-11T03:45:52.794Z,5.53
2017-08-11T03:48:21.637Z,6.10
2017-08-11T03:50:50.055Z,4.67
2017-08-11T03:53:18.921Z,5.03
2017-08-11T03:55:47.380Z,5.60
2017-08-11T03:58:15.860Z,6.20
2017-08-11T04:00:44.294Z,6.70
2017-08-11T04:03:13.486Z,6.10
2017-08-11T04:05:41.953Z,7.50
2017-08-11T04:08:11.142Z,6.07
2017-08-11T04:10:40.401Z,6.17
2017-08-11T04:13:08.831Z,6.70
2017-08-11T04:15:38.038Z,8.70
2017-08-11T04:18:06.544Z,6.30
2017-08-11T04:20:35.043Z,7.97
2017-08-11T04:23:03.460Z,7.17
2017-08-11T04:25:31.960Z,6.73
2017-08-11T04:28:00.399Z,7.90
2017-08-11T04:30:28.863Z,6.20
2017-08-11T04:32:58.069Z,6.43
2017-08-11T04:35:26.552Z,5.77
2017-08-11T04:37:54.972Z,5.60
2017-08-11T04:40:23.080Z,10.70
2017-08-11T04:42:51.554Z,6.40
2017-08-11T04:45:19.991Z,8.20
2017-08-11T04:47:49.241Z,7.53
2017-08-11T04:50:17.676Z,7.03
2017-08-11T04:52:46.917Z,6.77
2017-08-11T04:55:15.398Z,7.70
2017-08-11T04:57:43.824Z,8.53
2017-08-11T05:00:13.055Z,7.10
2017-08-11T05:02:43.016Z,6.90
2017-08-11T05:05:11.443Z,7.80
2017-08-11T05:07:39.897Z,7.20
2017-08-11T05:10:08.334Z,7.30
2017-08-11T05:12:37.587Z,7.90
2017-08-11T05:15:06.027Z,8.30
2017-08-11T05:17:35.256Z,8.60
2017-08-11T05:20:03.727Z,7.57
2017-08-11T05:22:32.158Z,9.97
2017-08-11T05:25:00.623Z,8.43
2017-08-11T05:27:29.055Z,10.00
2017-08-11T05:29:57.533Z,8.30
2017-08-11T05:32:25.959Z,8.50
2017-08-11T05:34:54.429Z,9.50
2017-08-11T05:37:22.874Z,9.67
2017-08-11T05:39:51.386Z,9.17
2017-08-11T05:42:19.853Z,9.93
2017-08-11T05:44:48.300Z,11.50
2017-08-11T05:47:16.767Z,7.87
2017-08-11T05:49:45.265Z,9.57
2017-08-11T05:52:13.777Z,9.40
2017-08-11T05:54:43.379Z,7.77
2017-08-11T05:57:11.851Z,9.77
2017-08-11T05:59:40.112Z,7.87
2017-08-11T06:02:08.543Z,9.10
2017-08-11T06:04:37.024Z,7.83
2017-08-11T06:07:05.536Z,9.50
2017-08-11T06:09:34.004Z,8.30
2017-08-11T06:12:02.430Z,7.93
2017-08-11T06:14:30.924Z,7.90
2017-08-11T06:16:59.388Z,6.97
2017-08-11T06:19:27.838Z,6.90
2017-08-11T06:21:56.726Z,6.80
2017-08-11T06:24:25.152Z,6.20
2017-08-11T06:26:53.590Z,5.93
2017-08-11T06:29:22.251Z,6.97
2017-08-11T06:31:50.683Z,6.53
2017-08-11T06:34:19.107Z,7.07
2017-08-11T06:36:48.371Z,6.73
2017-08-11T06:39:18.310Z,7.60
2017-08-11T06:41:46.731Z,7.87
2017-08-11T06:44:15.184Z,6.87
2017-08-11T06:46:44.819Z,7.07
2017-08-11T06:49:13.284Z,6.33
2017-08-11T06:51:42.042Z,6.73
2017-08-11T06:54:10.526Z,6.90
2017-08-11T06:56:38.959Z,6.53
2017-08-11T06:59:07.390Z,6.13
2017-08-11T07:01:35.858Z,7.47
2017-08-11T07:04:04.287Z,6.97
2017-08-11T07:06:32.766Z,6.73
2017-08-11T07:09:01.192Z,6.47
2017-08-11T07:11:29.322Z,7.03
2017-08-11T07:13:57.769Z,5.77
2017-08-11T07:16:26.300Z,7.13
2017-08-11T07:18:54.743Z,6.60
2017-08-11T07:21:23.179Z,6.63
2017-08-11T07:23:51.666Z,6.10
2017-08-11T07:26:20.090Z,6.17
2017-08-11T07:28:48.520Z,5.20
2017-08-11T07:31:16.978Z,6.13
2017-08-11T07:33:45.421Z,6.73
2017-08-11T07:36:13.848Z,6.00
2017-08-11T07:38:42.281Z,5.37
2017-08-11T07:41:11.521Z,7.03
2017-08-11T07:43:40.012Z,6.43
2017-08-11T07:46:08.444Z,5.90
2017-08-11T07:48:36.874Z,6.87
2017-08-11T07:51:05.354Z,6.30
2017-08-11T07:53:34.559Z,7.33
2017-08-11T07:56:03.837Z,8.00
2017-08-11T07:58:32.284Z,7.50
2017-08-11T08:01:02.230Z,7.30
2017-08-11T08:03:30.658Z,7.77
2017-08-11T08:05:59.100Z,8.63
2017-08-11T08:08:27.576Z,7.40
2017-08-11T08:10:56.007Z,7.60
2017-08-11T08:13:24.313Z,6.23
2017-08-11T08:15:52.788Z,7.60
2017-08-11T08:18:21.214Z,6.50
2017-08-11T08:20:49.700Z,7.00
2017-08-11T08:23:18.520Z,6.23
2017-08-11T08:25:47.353Z,7.67
2017-08-11T08:28:15.849Z,5.90
2017-08-11T08:30:44.287Z,7.13
2017-08-11T08:33:12.722Z,6.50
2017-08-11T08:35:41.210Z,6.40
2017-08-11T08:38:09.674Z,7.00
2017-08-11T08:40:38.646Z,6.70
2017-08-11T08:43:07.115Z,6.53
2017-08-11T08:45:35.952Z,6.90
2017-08-11T08:48:04.437Z,6.87
2017-08-11T08:50:32.876Z,7.40
2017-08-11T08:53:01.341Z,6.70
2017-08-11T08:55:30.250Z,6.50
2017-08-11T08:57:58.693Z,7.10
2017-08-11T09:00:27.919Z,7.50
2017-08-11T09:02:56.382Z,7.00
2017-08-11T09:05:25.963Z,6.57
2017-08-11T09:07:54.444Z,7.80
2017-08-11T09:10:23.260Z,6.30
2017-08-11T09:12:52.468Z,7.17
2017-08-11T09:15:21.726Z,7.37
2017-08-11T09:17:50.397Z,8.90
2017-08-11T09:20:18.829Z,6.30
2017-08-11T09:22:47.291Z,6.90
2017-08-11T09:25:27.923Z,6.80
2017-08-11T09:28:07.330Z,9.90
2017-08-11T09:30:46.934Z,7.77
2017-08-11T09:33:27.111Z,5.50
2017-08-11T09:36:06.608Z,9.13
2017-08-11T09:38:35.852Z,6.80
2017-08-11T09:41:04.299Z,7.63
2017-08-11T09:43:32.811Z,9.03
2017-08-11T09:46:02.017Z,7.27
2017-08-11T09:48:30.459Z,7.90
2017-08-11T09:50:59.714Z,6.20
2017-08-11T09:53:28.165Z,9.53
2017-08-11T09:55:58.135Z,10.50
2017-08-11T09:58:26.569Z,9.80
2017-08-11T10:00:55.396Z,12.10
2017-08-11T10:03:25.399Z,9.77
2017-08-11T10:05:53.868Z,11.23
2017-08-11T10:08:22.707Z,10.87
2017-08-11T10:10:52.734Z,8.27
2017-08-11T10:13:21.163Z,8.57
2017-08-11T10:15:49.596Z,9.13
2017-08-11T10:18:18.475Z,8.00
2017-08-11T10:20:47.296Z,7.87
2017-08-11T10:23:16.501Z,7.73
2017-08-11T10:25:45.741Z,7.50
2017-08-11T10:28:14.560Z,7.37
2017-08-11T10:30:43.998Z,7.97
2017-08-11T10:33:12.588Z,6.20
2017-08-11T10:35:41.055Z,8.20
2017-08-11T10:38:09.496Z,6.23
2017-08-11T10:40:38.324Z,6.20
2017-08-11T10:43:06.806Z,7.33
2017-08-11T10:45:35.322Z,5.60
2017-08-11T10:48:04.194Z,7.87
2017-08-11T10:50:33.621Z,6.33
2017-08-11T10:53:02.845Z,7.40
2017-08-11T10:55:31.694Z,5.47
2017-08-11T10:58:00.933Z,7.80
2017-08-11T11:00:31.306Z,6.07
2017-08-11T11:03:00.880Z,7.23
2017-08-11T11:05:29.713Z,7.60
2017-08-11T11:07:58.222Z,8.80
2017-08-11T11:10:26.667Z,9.43
2017-08-11T11:12:55.106Z,6.90
2017-08-11T11:15:23.577Z,7.43
2017-08-11T11:17:52.406Z,8.57
2017-08-11T11:20:20.842Z,6.93
2017-08-11T11:22:49.300Z,8.70
2017-08-11T11:25:18.523Z,11.20
2017-08-11T11:27:46.971Z,13.47
2017-08-11T11:30:15.460Z,11.97
2017-08-11T11:32:43.920Z,12.90
2017-08-11T11:35:12.799Z,13.50
2017-08-11T11:37:43.027Z,13.63
2017-08-11T11:40:12.227Z,14.47
2017-08-11T11:42:41.439Z,12.57
2017-08-11T11:45:09.921Z,11.97
2017-08-11T11:47:38.349Z,9.07
2017-08-11T11:50:07.579Z,10.30
2017-08-11T11:52:36.417Z,11.33
2017-08-11T11:55:05.340Z,9.90
2017-08-11T11:57:34.945Z,9.40
2017-08-11T12:00:03.373Z,11.20
2017-08-11T12:02:32.244Z,11.10
2017-08-11T12:05:00.729Z,11.53
2017-08-11T12:07:29.567Z,11.50
2017-08-11T12:09:58.454Z,11.93
2017-08-11T12:12:26.912Z,11.40
2017-08-11T12:14:56.134Z,10.20
2017-08-11T12:17:25.049Z,11.07
2017-08-11T12:19:54.486Z,13.17
2017-08-11T12:22:23.332Z,12.27
2017-08-11T12:24:52.171Z,15.37
2017-08-11T12:27:21.753Z,12.10
2017-08-11T12:29:50.235Z,15.40
2017-08-11T12:32:18.674Z,10.97
2017-08-11T12:34:47.936Z,12.57
2017-08-11T12:37:17.380Z,13.07
2017-08-11T12:39:46.966Z,13.33
2017-08-11T12:42:15.452Z,12.53
2017-08-11T12:44:44.317Z,13.00
2017-08-11T12:47:13.159Z,12.93
2017-08-11T12:49:42.457Z,14.87
2017-08-11T12:52:12.403Z,15.53
2017-08-11T12:54:41.063Z,17.00
2017-08-11T12:57:10.714Z,18.27
2017-08-11T12:59:38.966Z,15.50
2017-08-11T13:02:08.192Z,17.57
2017-08-11T13:04:36.634Z,17.63
2017-08-11T13:07:05.172Z,22.07
2017-08-11T13:09:35.213Z,19.77
2017-08-11T13:12:04.435Z,19.30
2017-08-11T13:14:32.880Z,19.43
2017-08-11T13:17:02.089Z,18.87
2017-08-11T13:19:30.544Z,20.07
2017-08-11T13:21:59.758Z,18.70
2017-08-11T13:24:29.308Z,18.90
2017-08-11T13:26:57.768Z,21.67
2017-08-11T13:29:26.963Z,19.33
2017-08-11T13:31:55.442Z,20.47
2017-08-11T13:34:23.867Z,22.17
2017-08-11T13:36:53.123Z,20.20
2017-08-11T13:39:21.957Z,21.40
2017-08-11T13:41:50.821Z,21.90
2017-08-11T13:44:19.301Z,19.60
2017-08-11T13:46:48.524Z,19.87
2017-08-11T13:49:17.404Z,19.07
2017-08-11T13:51:46.856Z,22.90
2017-08-11T13:54:16.857Z,23.60
2017-08-11T13:56:45.292Z,21.57
2017-08-11T13:59:14.340Z,20.43
2017-08-11T14:01:43.608Z,20.37
2017-08-11T14:04:12.035Z,18.83
2017-08-11T14:06:40.463Z,20.30
2017-08-11T14:09:09.041Z,22.20
2017-08-11T14:11:37.462Z,22.07
2017-08-11T14:14:07.030Z,20.00
2017-08-11T14:16:35.518Z,22.20
2017-08-11T14:19:04.347Z,22.40
2017-08-11T14:21:33.546Z,20.60
2017-08-11T14:24:07.559Z,25.23
2017-08-11T14:26:35.987Z,23.70
2017-08-11T14:29:04.434Z,24.47
2017-08-11T14:31:33.684Z,22.67
2017-08-11T14:34:02.117Z,23.03
2017-08-11T14:36:30.564Z,19.47
2017-08-11T14:38:59.637Z,22.03
2017-08-11T14:41:28.550Z,22.70
2017-08-11T14:43:57.374Z,22.03
2017-08-11T14:46:26.886Z,21.20
2017-08-11T14:48:55.328Z,19.30
2017-08-11T14:51:23.751Z,20.30
2017-08-11T14:53:52.988Z,21.30
2017-08-11T14:56:21.485Z,19.57
2017-08-11T14:58:50.320Z,21.17
2017-08-11T15:01:18.761Z,19.90
2017-08-11T15:03:47.361Z,22.67
2017-08-11T15:06:15.807Z,24.50
2017-08-11T15:08:44.239Z,22.67
2017-08-11T15:11:13.510Z,25.30
2017-08-11T15:13:41.965Z,24.47
2017-08-11T15:16:10.405Z,24.00
2017-08-11T15:18:39.289Z,28.23
2017-08-11T15:21:07.738Z,23.93
2017-08-11T15:23:36.192Z,27.80
2017-08-11T15:26:05.436Z,25.77
2017-08-11T15:28:34.268Z,24.53
2017-08-11T15:31:02.708Z,25.30
2017-08-11T15:33:31.185Z,26.10
2017-08-11T15:35:59.623Z,28.03
2017-08-11T15:38:29.057Z,23.43
2017-08-11T15:40:57.981Z,22.57
2017-08-11T15:43:27.567Z,27.67
2017-08-11T15:45:56.777Z,24.30
2017-08-11T15:48:25.244Z,20.57
2017-08-11T15:50:53.684Z,16.30
2017-08-11T15:53:22.583Z,21.30
2017-08-11T15:55:51.016Z,19.40
2017-08-11T15:58:20.228Z,19.40
2017-08-11T16:00:48.730Z,20.07
2017-08-11T16:03:18.317Z,19.10
2017-08-11T16:05:46.780Z,20.53
2017-08-11T16:08:15.212Z,20.77
2017-08-11T16:10:44.427Z,18.97
2017-08-11T16:13:12.860Z,20.30
2017-08-11T16:15:42.088Z,19.30
2017-08-11T16:18:10.573Z,20.80
2017-08-11T16:20:38.835Z,21.17
2017-08-11T16:23:07.917Z,20.90
2017-08-11T16:25:36.396Z,20.33
2017-08-11T16:28:05.244Z,20.50
2017-08-11T16:30:33.735Z,21.57
2017-08-11T16:33:02.208Z,19.10
2017-08-11T16:35:30.643Z,24.50
2017-08-11T16:37:59.139Z,23.60
2017-08-11T16:40:27.974Z,22.10
2017-08-11T16:42:56.471Z,22.47
2017-08-11T16:45:24.942Z,22.60
2017-08-11T16:47:53.381Z,26.70
2017-08-11T16:50:22.231Z,25.03
2017-08-11T16:52:50.712Z,23.40
2017-08-11T16:55:19.182Z,24.00
2017-08-11T16:57:47.610Z,25.70
2017-08-11T17:00:16.085Z,24.10
2017-08-11T17:02:45.025Z,25.23
2017-08-11T17:05:13.951Z,26.37
2017-08-11T17:07:43.577Z,27.07
2017-08-11T17:10:12.407Z,26.37
2017-08-11T17:12:40.897Z,26.50
2017-08-11T17:15:09.550Z,27.23
2017-08-11T17:17:38.369Z,25.50
2017-08-11T17:20:07.242Z,25.30
2017-08-11T17:22:35.680Z,28.93
2017-08-11T17:25:04.345Z,26.00
2017-08-11T17:27:32.794Z,29.33
2017-08-11T17:30:01.284Z,31.50
2017-08-11T17:32:30.515Z,27.10
2017-08-11T17:34:59.395Z,27.67
2017-08-11T17:37:28.235Z,27.80
2017-08-11T17:39:57.825Z,31.63
2017-08-11T17:42:27.080Z,29.30
2017-08-11T17:44:55.524Z,27.27
2017-08-11T17:47:24.592Z,30.27
2017-08-11T17:49:53.028Z,27.20
2017-08-11T17:52:21.506Z,27.23
2017-08-11T17:54:51.050Z,25.93
2017-08-11T17:57:19.478Z,28.60
2017-08-11T17:59:47.997Z,28.03
2017-08-11T18:02:17.210Z,22.50
2017-08-11T18:04:46.409Z,24.13
2017-08-11T18:07:17.103Z,23.37
2017-08-11T18:09:45.586Z,23.30
2017-08-11T18:12:14.048Z,19.83
2017-08-11T18:14:42.671Z,24.93
2017-08-11T18:17:11.152Z,20.83
2017-08-11T18:19:40.395Z,21.97
2017-08-11T18:22:10.390Z,29.67
2017-08-11T18:24:38.824Z,26.70
2017-08-11T18:27:07.581Z,25.63
2017-08-11T18:29:36.819Z,25.53
2017-08-11T18:32:05.303Z,23.97
2017-08-11T18:34:37.152Z,21.27
2017-08-11T18:37:05.656Z,22.07
2017-08-11T18:39:34.088Z,18.70
2017-08-11T18:42:02.535Z,16.90
2017-08-11T18:44:31.787Z,19.87
2017-08-11T18:47:00.413Z,14.77
2017-08-11T18:49:28.847Z,14.60
2017-08-11T18:51:58.076Z,15.30
2017-08-11T18:54:26.531Z,16.87
2017-08-11T18:56:54.977Z,16.37
2017-08-11T18:59:23.495Z,17.23
2017-08-11T19:01:51.930Z,17.87
2017-08-11T19:04:20.402Z,21.43
2017-08-11T19:06:49.340Z,19.10
2017-08-11T19:09:18.352Z,16.43
2017-08-11T19:11:46.957Z,16.37
2017-08-11T19:14:15.412Z,18.70
2017-08-11T19:16:43.952Z,17.53
2017-08-11T19:19:13.334Z,17.03
2017-08-11T19:21:42.118Z,16.40
2017-08-11T19:24:10.863Z,15.33
2017-08-11T19:26:39.419Z,14.40
2017-08-11T19:29:08.151Z,14.33
2017-08-11T19:31:36.692Z,15.77
2017-08-11T19:34:05.406Z,15.33
2017-08-11T19:36:33.990Z,14.77
2017-08-11T19:39:02.656Z,15.40
2017-08-11T19:41:31.190Z,17.00
2017-08-11T19:43:59.928Z,13.93
2017-08-11T19:46:28.676Z,14.30
2017-08-11T19:48:57.304Z,16.07
2017-08-11T19:51:26.025Z,17.07
2017-08-11T19:53:54.942Z,18.00
2017-08-11T19:56:23.474Z,21.57
2017-08-11T19:58:52.200Z,17.57
2017-08-11T20:01:21.514Z,17.77
2017-08-11T20:03:50.437Z,17.57
2017-08-11T20:06:18.974Z,19.97
2017-08-11T20:08:47.526Z,18.33
2017-08-11T20:11:16.242Z,18.27
2017-08-11T20:13:44.978Z,17.67
2017-08-11T20:16:13.910Z,18.50
2017-08-11T20:18:43.669Z,16.57
2017-08-11T20:21:12.366Z,18.23
2017-08-11T20:23:41.004Z,18.10
2017-08-11T20:26:09.538Z,17.57
2017-08-11T20:28:38.109Z,17.47
2017-08-11T20:31:06.586Z,15.50
2017-08-11T20:33:35.069Z,14.33
2017-08-11T20:36:05.007Z,16.80
2017-08-11T20:38:33.487Z,16.27
2017-08-11T20:41:02.332Z,16.23
2017-08-11T20:43:31.541Z,17.03
2017-08-11T20:46:01.124Z,18.00
2017-08-11T20:48:29.998Z,17.17
2017-08-11T20:50:58.446Z,19.77
2017-08-11T20:53:27.668Z,16.83
2017-08-11T20:55:56.129Z,19.93
2017-08-11T20:58:24.643Z,18.33
2017-08-11T21:00:53.068Z,21.10
2017-08-11T21:03:22.261Z,20.10
2017-08-11T21:05:51.259Z,18.70
2017-08-11T21:08:20.097Z,21.87
2017-08-11T21:10:48.924Z,23.10
2017-08-11T21:13:17.476Z,24.90
2017-08-11T21:15:47.419Z,25.60
2017-08-11T21:18:15.853Z,24.43
2017-08-11T21:20:44.331Z,27.07
2017-08-11T21:23:12.755Z,27.40
2017-08-11T21:25:41.572Z,28.70
2017-08-11T21:28:10.060Z,26.57
2017-08-11T21:30:38.491Z,30.43
2017-08-11T21:33:06.919Z,29.37
2017-08-11T21:35:35.386Z,32.53
2017-08-11T21:38:03.817Z,27.30
2017-08-11T21:40:32.297Z,30.47
2017-08-11T21:43:00.732Z,28.07
2017-08-11T21:45:29.165Z,28.80
2017-08-11T21:47:58.832Z,30.50
2017-08-11T21:50:27.270Z,27.40
2017-08-11T21:52:56.107Z,28.83
2017-08-11T21:55:24.588Z,31.43
2017-08-11T21:57:53.017Z,30.30
2017-08-11T22:00:21.440Z,28.10
2017-08-11T22:02:49.948Z,34.17
2017-08-11T22:05:19.046Z,28.60
2017-08-11T22:07:48.254Z,33.00
2017-08-11T22:10:16.719Z,31.73
2017-08-11T22:12:45.200Z,31.73
2017-08-11T22:15:13.683Z,36.37
2017-08-11T22:17:42.164Z,32.23
2017-08-11T22:20:10.641Z,32.17
2017-08-11T22:22:39.117Z,35.20
2017-08-11T22:25:07.564Z,34.87
2017-08-11T22:27:36.767Z,35.87
2017-08-11T22:30:05.234Z,32.60
2017-08-11T22:32:33.698Z,31.97
2017-08-11T22:35:02.620Z,29.53
2017-08-11T22:37:31.069Z,31.07
2017-08-11T22:39:59.495Z,33.13
2017-08-11T22:42:27.997Z,29.80
2017-08-11T22:44:56.459Z,28.03
2017-08-11T22:47:25.286Z,31.10
2017-08-11T22:49:56.817Z,34.27
2017-08-11T22:52:25.633Z,34.53
2017-08-11T22:54:54.061Z,36.53
2017-08-11T22:57:22.532Z,32.00
2017-08-11T22:59:50.960Z,34.27
2017-08-11T23:02:19.431Z,36.80
2017-08-11T23:04:47.850Z,33.30
2017-08-11T23:07:16.355Z,34.13
2017-08-11T23:09:44.807Z,33.87
2017-08-11T23:12:13.233Z,32.70
2017-08-11T23:14:41.698Z,36.73
2017-08-11T23:17:10.532Z,33.70
2017-08-11T23:19:39.011Z,34.10
2017-08-11T23:22:07.455Z,35.77
2017-08-11T23:24:35.885Z,34.80
2017-08-11T23:27:05.518Z,35.20
2017-08-11T23:29:33.951Z,32.93
2017-08-11T23:32:02.384Z,37.30
2017-08-11T23:34:31.233Z,35.00
2017-08-11T23:36:59.664Z,35.93
2017-08-11T23:39:28.093Z,34.17
2017-08-11T23:41:56.431Z,36.17
2017-08-11T23:44:24.863Z,34.60
2017-08-11T23:46:53.288Z,32.33
2017-08-11T23:49:22.540Z,34.97
2017-08-11T23:51:50.968Z,33.47
2017-08-11T23:54:20.161Z,36.17
2017-08-11T23:56:48.629Z,31.97
2017-08-11T23:59:18.186Z,35.57
